La rose des vents
Donnes mto: Semaine 14/03/22 - 20/03/22 (S 11)
Date Horaire Temp. E. Hum. E. P.atmo. Pluie Vent 1mn Direction Ensoleilleme Ev.Tr. Solaire P. de rose Temp au vent Rafales
14/03/2022 00:00 7,1 C 96 % 1025,0 hPa 0,2 mm 0,1 km/h (0 Bft) NE 0,00 h 0,000 mm 0 W/m 6,5 C 7,1 C 0,3 km/h (0 Bft)
14/03/2022 01:00 7,2 C 96 % 1025,2 hPa 0,8 mm 0,1 km/h (0 Bft) NE 0,00 h 0,000 mm 0 W/m 6,6 C 7,2 C 0,2 km/h (0 Bft)
14/03/2022 02:00 7,1 C 96 % 1025,4 hPa 0,4 mm 0,0 km/h (0 Bft) N 0,00 h 0,000 mm 0 W/m 6,5 C 7,1 C 0,1 km/h (0 Bft)
14/03/2022 03:00 7,1 C 96 % 1025,4 hPa 0,2 mm 0,1 km/h (0 Bft) NE 0,00 h 0,000 mm 0 W/m 6,5 C 7,1 C 0,2 km/h (0 Bft)
14/03/2022 04:00 7,1 C 97 % 1025,5 hPa 0,0 mm 0,0 km/h (0 Bft) N 0,00 h 0,000 mm 0 W/m 6,6 C 7,1 C 0,0 km/h (0 Bft)
14/03/2022 05:00 7,2 C 97 % 1025,8 hPa 0,8 mm 0,0 km/h (0 Bft) N 0,00 h 0,000 mm 0 W/m 6,8 C 7,2 C 0,0 km/h (0 Bft)
14/03/2022 06:00 7,5 C 97 % 1025,9 hPa 0,0 mm 0,0 km/h (0 Bft) N 0,00 h 0,000 mm 0 W/m 7,0 C 7,5 C 0,0 km/h (0 Bft)
14/03/2022 07:00 7,5 C 97 % 1026,8 hPa 0,0 mm 0,0 km/h (0 Bft) N 0,00 h 0,000 mm 12 W/m 7,1 C 7,5 C 0,0 km/h (0 Bft)
14/03/2022 08:00 7,9 C 98 % 1027,6 hPa 0,0 mm 0,0 km/h (0 Bft) N 0,00 h 0,000 mm 81 W/m 7,5 C 7,9 C 0,0 km/h (0 Bft)
14/03/2022 09:00 9,9 C 98 % 1027,9 hPa 0,0 mm 0,0 km/h (0 Bft) N 0,13 h 0,025 mm 190 W/m 9,7 C 9,9 C 0,0 km/h (0 Bft)
14/03/2022 10:00 11,8 C 98 % 1028,4 hPa 0,0 mm 0,0 km/h (0 Bft) N 0,43 h 0,076 mm 335 W/m 11,4 C 11,8 C 0,1 km/h (0 Bft)
14/03/2022 11:00 13,1 C 85 % 1028,3 hPa 0,0 mm 0,3 km/h (0 Bft) E 0,18 h 0,152 mm 262 W/m 10,6 C 13,1 C 1,9 km/h (1 Bft)
14/03/2022 12:00 12,7 C 82 % 1028,8 hPa 0,0 mm 0,3 km/h (0 Bft) E 0,00 h 0,127 mm 120 W/m 9,6 C 12,7 C 2,5 km/h (1 Bft)
14/03/2022 13:00 12,3 C 81 % 1028,4 hPa 0,0 mm 0,3 km/h (0 Bft) E 0,00 h 0,051 mm 86 W/m 9,3 C 12,3 C 2,8 km/h (1 Bft)
14/03/2022 14:00 12,2 C 82 % 1028,3 hPa 0,2 mm 0,5 km/h (0 Bft) E 0,00 h 0,051 mm 59 W/m 9,2 C 12,2 C 3,7 km/h (1 Bft)
14/03/2022 15:00 11,8 C 83 % 1028,6 hPa 0,0 mm 0,8 km/h (0 Bft) E 0,00 h 0,025 mm 28 W/m 9,1 C 11,8 C 4,8 km/h (1 Bft)
14/03/2022 16:00 11,7 C 85 % 1028,8 hPa 0,0 mm 0,3 km/h (0 Bft) N-NE 0,00 h 0,025 mm 19 W/m 9,2 C 11,7 C 2,2 km/h (1 Bft)
14/03/2022 17:00 11,7 C 86 % 1028,8 hPa 0,0 mm 0,1 km/h (0 Bft) N-NE 0,00 h 0,000 mm 17 W/m 9,4 C 11,7 C 1,2 km/h (1 Bft)
14/03/2022 18:00 11,8 C 84 % 1029,2 hPa 0,0 mm 0,2 km/h (0 Bft) N-NE 0,00 h 0,000 mm 8 W/m 9,2 C 11,8 C 1,8 km/h (1 Bft)
14/03/2022 19:00 11,8 C 83 % 1029,7 hPa 0,0 mm 0,0 km/h (0 Bft) N-NE 0,00 h 0,000 mm 0 W/m 9,0 C 11,8 C 0,3 km/h (0 Bft)
14/03/2022 20:00 11,5 C 84 % 1029,7 hPa 0,0 mm 0,1 km/h (0 Bft) N-NE 0,00 h 0,000 mm 0 W/m 8,9 C 11,5 C 1,0 km/h (0 Bft)
14/03/2022 21:00 11,4 C 83 % 1030,4 hPa 0,0 mm 0,0 km/h (0 Bft) N 0,00 h 0,000 mm 0 W/m 8,6 C 11,4 C 0,2 km/h (0 Bft)
14/03/2022 22:00 11,3 C 83 % 1030,4 hPa 0,0 mm 0,1 km/h (0 Bft) N-NE 0,00 h 0,000 mm 0 W/m 8,5 C 11,3 C 0,6 km/h (0 Bft)
14/03/2022 23:00 11,7 C 78 % 1030,2 hPa 0,0 mm 0,3 km/h (0 Bft) N-NE 0,00 h 0,000 mm 0 W/m 7,9 C 11,7 C 2,6 km/h (1 Bft)
15/03/2022 00:00 12,3 C 73 % 1030,2 hPa 0,0 mm 0,0 km/h (0 Bft) N 0,00 h 0,000 mm 0 W/m 7,6 C 12,3 C 0,4 km/h (0 Bft)
15/03/2022 01:00 12,1 C 74 % 1030,3 hPa 0,0 mm 0,0 km/h (0 Bft) E-SE 0,00 h 0,000 mm 0 W/m 7,5 C 12,1 C 0,3 km/h (0 Bft)
15/03/2022 02:00 11,7 C 75 % 1030,2 hPa 0,0 mm 0,0 km/h (0 Bft) N 0,00 h 0,000 mm 0 W/m 7,4 C 11,7 C 0,1 km/h (0 Bft)
15/03/2022 03:00 11,5 C 75 % 1030,2 hPa 0,0 mm 0,1 km/h (0 Bft) E 0,00 h 0,000 mm 0 W/m 7,2 C 11,5 C 0,7 km/h (0 Bft)
15/03/2022 04:00 11,2 C 75 % 1029,9 hPa 0,0 mm 0,0 km/h (0 Bft) N 0,00 h 0,000 mm 0 W/m 7,0 C 11,2 C 0,3 km/h (0 Bft)
15/03/2022 05:00 10,6 C 76 % 1029,9 hPa 0,0 mm 0,0 km/h (0 Bft) N 0,00 h 0,000 mm 0 W/m 6,6 C 10,6 C 0,0 km/h (0 Bft)
15/03/2022 06:00 10,3 C 80 % 1030,2 hPa 0,0 mm 0,1 km/h (0 Bft) N 0,00 h 0,000 mm 8 W/m 6,9 C 10,3 C 0,5 km/h (0 Bft)
15/03/2022 07:00 10,1 C 78 % 1030,5 hPa 0,0 mm 0,2 km/h (0 Bft) NE 0,00 h 0,000 mm 37 W/m 6,6 C 10,1 C 2,2 km/h (1 Bft)
15/03/2022 08:00 11,3 C 74 % 1030,9 hPa 0,0 mm 0,2 km/h (0 Bft) N 0,35 h 0,025 mm 147 W/m 6,8 C 11,3 C 1,7 km/h (1 Bft)
15/03/2022 09:00 13,2 C 69 % 1031,2 hPa 0,0 mm 0,1 km/h (0 Bft) N-NE 0,07 h 0,076 mm 215 W/m 7,6 C 13,2 C 1,0 km/h (0 Bft)
15/03/2022 10:00 15,0 C 64 % 1031,1 hPa 0,0 mm 0,5 km/h (0 Bft) E 0,50 h 0,102 mm 330 W/m 8,2 C 15,0 C 3,0 km/h (1 Bft)
15/03/2022 11:00 15,7 C 61 % 1030,8 hPa 0,0 mm 1,4 km/h (1 Bft) E 0,82 h 0,178 mm 415 W/m 8,3 C 15,7 C 6,6 km/h (2 Bft)
15/03/2022 12:00 16,3 C 61 % 1030,5 hPa 0,0 mm 1,1 km/h (1 Bft) E 0,65 h 0,229 mm 407 W/m 8,8 C 16,3 C 5,9 km/h (2 Bft)
15/03/2022 13:00 15,5 C 63 % 1030,1 hPa 0,0 mm 1,6 km/h (1 Bft) E 0,23 h 0,229 mm 342 W/m 8,5 C 15,5 C 6,9 km/h (2 Bft)
15/03/2022 14:00 16,3 C 61 % 1029,6 hPa 0,0 mm 1,4 km/h (1 Bft) E 0,98 h 0,203 mm 468 W/m 8,9 C 16,3 C 7,0 km/h (2 Bft)
15/03/2022 15:00 16,2 C 61 % 1029,1 hPa 0,0 mm 1,4 km/h (1 Bft) E 0,98 h 0,254 mm 386 W/m 8,7 C 16,2 C 6,8 km/h (2 Bft)
15/03/2022 16:00 14,7 C 68 % 1028,5 hPa 0,0 mm 1,0 km/h (0 Bft) E 0,33 h 0,203 mm 192 W/m 8,9 C 14,7 C 4,5 km/h (1 Bft)
15/03/2022 17:00 13,7 C 72 % 1028,2 hPa 0,0 mm 0,5 km/h (0 Bft) E 0,17 h 0,102 mm 88 W/m 8,7 C 13,7 C 2,3 km/h (1 Bft)
15/03/2022 18:00 12,4 C 74 % 1028,2 hPa 0,0 mm 0,1 km/h (0 Bft) E-SE 0,00 h 0,051 mm 19 W/m 8,0 C 12,4 C 0,7 km/h (0 Bft)
15/03/2022 19:00 11,5 C 77 % 1028,0 hPa 0,0 mm 0,1 km/h (0 Bft) E-SE 0,00 h 0,000 mm 0 W/m 7,6 C 11,5 C 0,4 km/h (0 Bft)
15/03/2022 20:00 11,1 C 78 % 1027,8 hPa 0,0 mm 0,1 km/h (0 Bft) E-SE 0,00 h 0,025 mm 0 W/m 7,4 C 11,1 C 0,6 km/h (0 Bft)
15/03/2022 21:00 10,5 C 79 % 1027,7 hPa 0,0 mm 0,0 km/h (0 Bft) N 0,00 h 0,025 mm 0 W/m 7,1 C 10,5 C 0,2 km/h (0 Bft)
15/03/2022 22:00 10,3 C 79 % 1027,3 hPa 0,0 mm 0,4 km/h (0 Bft) E-SE 0,00 h 0,025 mm 0 W/m 6,8 C 10,3 C 1,4 km/h (1 Bft)
15/03/2022 23:00 10,0 C 80 % 1027,0 hPa 0,0 mm 1,0 km/h (0 Bft) E-SE 0,00 h 0,025 mm 0 W/m 6,8 C 10,0 C 2,4 km/h (1 Bft)
16/03/2022 00:00 9,9 C 83 % 1026,4 hPa 0,0 mm 0,4 km/h (0 Bft) O-SO 0,00 h 0,025 mm 0 W/m 7,2 C 9,9 C 1,8 km/h (1 Bft)
16/03/2022 01:00 9,7 C 85 % 1025,9 hPa 0,0 mm 0,5 km/h (0 Bft) O-SO 0,00 h 0,025 mm 0 W/m 7,3 C 9,7 C 1,8 km/h (1 Bft)
16/03/2022 02:00 9,7 C 86 % 1025,1 hPa 0,0 mm 0,4 km/h (0 Bft) O-SO 0,00 h 0,000 mm 0 W/m 7,5 C 9,7 C 1,9 km/h (1 Bft)
16/03/2022 03:00 9,5 C 85 % 1024,4 hPa 0,0 mm 0,0 km/h (0 Bft) O-SO 0,00 h 0,000 mm 0 W/m 7,1 C 9,5 C 0,5 km/h (0 Bft)
16/03/2022 04:00 9,0 C 84 % 1024,1 hPa 0,0 mm 0,1 km/h (0 Bft) O-SO 0,00 h 0,000 mm 0 W/m 6,4 C 9,0 C 0,3 km/h (0 Bft)
16/03/2022 05:00 8,9 C 84 % 1023,9 hPa 0,0 mm 0,0 km/h (0 Bft) N 0,00 h 0,000 mm 0 W/m 6,3 C 8,9 C 0,0 km/h (0 Bft)
16/03/2022 06:00 8,8 C 84 % 1023,9 hPa 0,0 mm 0,0 km/h (0 Bft) O-SO 0,00 h 0,000 mm 7 W/m 6,2 C 8,8 C 0,5 km/h (0 Bft)
16/03/2022 07:00 9,2 C 83 % 1024,1 hPa 0,0 mm 0,0 km/h (0 Bft) N 0,00 h 0,000 mm 46 W/m 6,4 C 9,2 C 0,1 km/h (0 Bft)
16/03/2022 08:00 10,4 C 82 % 1024,0 hPa 0,0 mm 0,0 km/h (0 Bft) N 0,02 h 0,025 mm 139 W/m 7,4 C 10,4 C 0,1 km/h (0 Bft)
16/03/2022 09:00 13,1 C 76 % 1023,9 hPa 0,0 mm 0,0 km/h (0 Bft) N 0,77 h 0,076 mm 300 W/m 9,0 C 13,1 C 0,0 km/h (0 Bft)
16/03/2022 10:00 15,4 C 70 % 1023,7 hPa 0,0 mm 0,2 km/h (0 Bft) E 0,87 h 0,152 mm 375 W/m 10,0 C 15,4 C 1,2 km/h (1 Bft)
16/03/2022 11:00 16,9 C 69 % 1023,2 hPa 0,0 mm 0,7 km/h (0 Bft) E 0,97 h 0,203 mm 479 W/m 11,2 C 16,9 C 3,1 km/h (1 Bft)
16/03/2022 12:00 18,1 C 68 % 1022,9 hPa 0,0 mm 1,5 km/h (1 Bft) E 0,90 h 0,254 mm 504 W/m 12,2 C 18,1 C 5,9 km/h (2 Bft)
16/03/2022 13:00 17,7 C 70 % 1022,4 hPa 0,0 mm 1,5 km/h (1 Bft) E 0,82 h 0,279 mm 463 W/m 12,3 C 17,7 C 5,5 km/h (1 Bft)
16/03/2022 14:00 16,5 C 75 % 1021,9 hPa 0,0 mm 1,4 km/h (1 Bft) E 0,12 h 0,254 mm 294 W/m 12,0 C 16,5 C 5,3 km/h (1 Bft)
16/03/2022 15:00 15,3 C 78 % 1021,3 hPa 0,0 mm 1,3 km/h (1 Bft) E-SE 0,00 h 0,152 mm 157 W/m 11,4 C 15,3 C 4,3 km/h (1 Bft)
16/03/2022 16:00 14,9 C 78 % 1021,2 hPa 0,0 mm 0,7 km/h (0 Bft) E 0,18 h 0,102 mm 173 W/m 11,1 C 14,9 C 3,3 km/h (1 Bft)
16/03/2022 17:00 13,9 C 80 % 1020,7 hPa 0,0 mm 0,9 km/h (0 Bft) E 0,00 h 0,102 mm 66 W/m 10,5 C 13,9 C 3,8 km/h (1 Bft)
16/03/2022 18:00 12,8 C 83 % 1020,3 hPa 0,0 mm 1,0 km/h (0 Bft) E 0,00 h 0,051 mm 16 W/m 10,1 C 12,8 C 3,2 km/h (1 Bft)
16/03/2022 19:00 12,3 C 86 % 1020,4 hPa 0,0 mm 0,3 km/h (0 Bft) E 0,00 h 0,000 mm 0 W/m 10,0 C 12,3 C 1,3 km/h (1 Bft)
16/03/2022 20:00 12,3 C 86 % 1020,7 hPa 0,0 mm 0,2 km/h (0 Bft) E 0,00 h 0,000 mm 0 W/m 10,0 C 12,3 C 0,9 km/h (0 Bft)
16/03/2022 21:00 12,3 C 84 % 1021,1 hPa 0,0 mm 1,8 km/h (1 Bft) E 0,00 h 0,000 mm 0 W/m 9,7 C 12,3 C 5,7 km/h (1 Bft)
16/03/2022 22:00 12,2 C 83 % 1021,6 hPa 0,0 mm 1,0 km/h (0 Bft) E 0,00 h 0,025 mm 0 W/m 9,4 C 12,2 C 3,4 km/h (1 Bft)
16/03/2022 23:00 11,9 C 85 % 1021,6 hPa 0,0 mm 0,0 km/h (0 Bft) N 0,00 h 0,025 mm 0 W/m 9,4 C 11,9 C 0,1 km/h (0 Bft)
17/03/2022 00:00 11,5 C 86 % 1021,4 hPa 0,0 mm 0,1 km/h (0 Bft) E-SE 0,00 h 0,000 mm 0 W/m 9,2 C 11,5 C 0,3 km/h (0 Bft)
17/03/2022 01:00 11,0 C 87 % 1021,1 hPa 0,0 mm 0,0 km/h (0 Bft) N 0,00 h 0,000 mm 0 W/m 9,0 C 11,0 C 0,1 km/h (0 Bft)
17/03/2022 02:00 10,8 C 88 % 1020,8 hPa 0,0 mm 0,0 km/h (0 Bft) N 0,00 h 0,000 mm 0 W/m 8,9 C 10,8 C 0,0 km/h (0 Bft)
17/03/2022 03:00 10,8 C 88 % 1020,7 hPa 0,0 mm 0,0 km/h (0 Bft) N 0,00 h 0,000 mm 0 W/m 8,9 C 10,8 C 0,2 km/h (0 Bft)
17/03/2022 04:00 10,7 C 89 % 1020,8 hPa 0,0 mm 0,0 km/h (0 Bft) E-SE 0,00 h 0,000 mm 0 W/m 8,9 C 10,7 C 0,1 km/h (0 Bft)
17/03/2022 05:00 10,9 C 87 % 1020,7 hPa 0,0 mm 0,0 km/h (0 Bft) N 0,00 h 0,000 mm 0 W/m 8,8 C 10,9 C 0,2 km/h (0 Bft)
17/03/2022 06:00 10,7 C 87 % 1020,9 hPa 0,0 mm 1,1 km/h (1 Bft) O-NO 0,00 h 0,000 mm 8 W/m 8,6 C 10,7 C 3,3 km/h (1 Bft)
17/03/2022 07:00 10,7 C 86 % 1021,3 hPa 0,0 mm 0,4 km/h (0 Bft) O-NO 0,00 h 0,000 mm 40 W/m 8,5 C 10,7 C 1,8 km/h (1 Bft)
17/03/2022 08:00 11,3 C 87 % 1021,5 hPa 0,0 mm 0,0 km/h (0 Bft) N 0,00 h 0,025 mm 93 W/m 9,2 C 11,3 C 0,0 km/h (0 Bft)
17/03/2022 09:00 12,5 C 84 % 1021,6 hPa 0,0 mm 0,0 km/h (0 Bft) N 0,00 h 0,051 mm 140 W/m 9,9 C 12,5 C 0,1 km/h (0 Bft)
17/03/2022 10:00 14,1 C 78 % 1021,7 hPa 0,0 mm 0,0 km/h (0 Bft) N 0,00 h 0,076 mm 158 W/m 10,3 C 14,1 C 0,0 km/h (0 Bft)
17/03/2022 11:00 15,5 C 72 % 1021,7 hPa 0,0 mm 0,0 km/h (0 Bft) N 0,00 h 0,076 mm 223 W/m 10,5 C 15,5 C 0,0 km/h (0 Bft)
17/03/2022 12:00 16,1 C 69 % 1021,6 hPa 0,0 mm 0,1 km/h (0 Bft) E-SE 0,00 h 0,127 mm 214 W/m 10,3 C 16,1 C 0,9 km/h (0 Bft)
17/03/2022 13:00 15,6 C 72 % 1021,4 hPa 0,0 mm 0,9 km/h (0 Bft) S 0,00 h 0,127 mm 184 W/m 10,4 C 15,6 C 2,7 km/h (1 Bft)
17/03/2022 14:00 15,3 C 76 % 1020,9 hPa 0,0 mm 0,7 km/h (0 Bft) S-SE 0,00 h 0,102 mm 215 W/m 11,0 C 15,3 C 2,5 km/h (1 Bft)
17/03/2022 15:00 15,2 C 77 % 1020,5 hPa 0,0 mm 2,2 km/h (1 Bft) S 0,00 h 0,127 mm 231 W/m 11,3 C 15,2 C 5,3 km/h (1 Bft)
17/03/2022 16:00 14,6 C 79 % 1020,7 hPa 0,0 mm 1,5 km/h (1 Bft) S 0,00 h 0,127 mm 150 W/m 11,1 C 14,6 C 3,8 km/h (1 Bft)
17/03/2022 17:00 13,9 C 81 % 1020,9 hPa 0,0 mm 0,4 km/h (0 Bft) S 0,00 h 0,076 mm 59 W/m 10,6 C 13,9 C 1,5 km/h (1 Bft)
17/03/2022 18:00 13,3 C 82 % 1021,3 hPa 0,0 mm 0,1 km/h (0 Bft) O 0,00 h 0,025 mm 13 W/m 10,3 C 13,3 C 1,3 km/h (1 Bft)
17/03/2022 19:00 12,7 C 83 % 1021,8 hPa 0,0 mm 0,1 km/h (0 Bft) O 0,00 h 0,000 mm 0 W/m 9,9 C 12,7 C 0,9 km/h (0 Bft)
17/03/2022 20:00 12,4 C 84 % 1022,4 hPa 0,0 mm 0,0 km/h (0 Bft) N 0,00 h 0,025 mm 0 W/m 9,8 C 12,4 C 0,0 km/h (0 Bft)
17/03/2022 21:00 12,0 C 85 % 1022,7 hPa 0,0 mm 0,0 km/h (0 Bft) N 0,00 h 0,025 mm 0 W/m 9,5 C 12,0 C 0,0 km/h (0 Bft)
17/03/2022 22:00 11,7 C 86 % 1022,9 hPa 0,0 mm 0,0 km/h (0 Bft) N 0,00 h 0,000 mm 0 W/m 9,4 C 11,7 C 0,2 km/h (0 Bft)
17/03/2022 23:00 11,6 C 87 % 1023,3 hPa 0,0 mm 0,2 km/h (0 Bft) O 0,00 h 0,000 mm 0 W/m 9,5 C 11,6 C 1,0 km/h (0 Bft)
18/03/2022 00:00 11,9 C 86 % 1023,2 hPa 0,0 mm 0,2 km/h (0 Bft) O 0,00 h 0,000 mm 0 W/m 9,6 C 11,9 C 1,7 km/h (1 Bft)
18/03/2022 01:00 11,9 C 86 % 1023,2 hPa 0,0 mm 0,0 km/h (0 Bft) O 0,00 h 0,000 mm 0 W/m 9,5 C 11,9 C 0,6 km/h (0 Bft)
18/03/2022 02:00 11,6 C 85 % 1023,3 hPa 0,0 mm 0,1 km/h (0 Bft) O 0,00 h 0,000 mm 0 W/m 9,1 C 11,6 C 0,3 km/h (0 Bft)
18/03/2022 03:00 11,3 C 85 % 1023,4 hPa 0,0 mm 0,0 km/h (0 Bft) N 0,00 h 0,000 mm 0 W/m 9,0 C 11,3 C 0,0 km/h (0 Bft)
18/03/2022 04:00 11,0 C 87 % 1023,2 hPa 0,0 mm 0,0 km/h (0 Bft) N 0,00 h 0,000 mm 0 W/m 8,8 C 11,0 C 0,0 km/h (0 Bft)
18/03/2022 05:00 10,9 C 86 % 1023,4 hPa 0,0 mm 0,0 km/h (0 Bft) N 0,00 h 0,000 mm 0 W/m 8,7 C 10,9 C 0,0 km/h (0 Bft)
18/03/2022 06:00 10,9 C 86 % 1023,5 hPa 0,0 mm 0,0 km/h (0 Bft) N 0,00 h 0,000 mm 6 W/m 8,6 C 10,9 C 0,0 km/h (0 Bft)
18/03/2022 07:00 11,1 C 85 % 1023,8 hPa 0,0 mm 0,0 km/h (0 Bft) N 0,00 h 0,000 mm 27 W/m 8,6 C 11,1 C 0,0 km/h (0 Bft)
18/03/2022 08:00 11,7 C 84 % 1024,3 hPa 0,0 mm 0,0 km/h (0 Bft) N 0,00 h 0,025 mm 67 W/m 9,1 C 11,7 C 0,0 km/h (0 Bft)
18/03/2022 09:00 12,7 C 82 % 1025,1 hPa 0,0 mm 0,0 km/h (0 Bft) N 0,00 h 0,025 mm 105 W/m 9,7 C 12,7 C 0,1 km/h (0 Bft)
18/03/2022 10:00 13,7 C 79 % 1025,8 hPa 0,0 mm 0,1 km/h (0 Bft) O 0,00 h 0,051 mm 170 W/m 10,2 C 13,7 C 0,6 km/h (0 Bft)
18/03/2022 11:00 15,1 C 72 % 1026,1 hPa 0,0 mm 0,2 km/h (0 Bft) O 0,00 h 0,076 mm 211 W/m 10,0 C 15,1 C 1,0 km/h (0 Bft)
18/03/2022 12:00 16,2 C 61 % 1026,0 hPa 0,0 mm 0,0 km/h (0 Bft) O 0,00 h 0,127 mm 243 W/m 8,6 C 16,2 C 0,3 km/h (0 Bft)
18/03/2022 13:00 16,7 C 60 % 1025,4 hPa 0,0 mm 0,4 km/h (0 Bft) O 0,00 h 0,127 mm 244 W/m 8,9 C 16,7 C 1,9 km/h (1 Bft)
18/03/2022 14:00 16,9 C 59 % 1024,9 hPa 0,0 mm 1,6 km/h (1 Bft) SO 0,00 h 0,127 mm 274 W/m 8,9 C 16,9 C 4,5 km/h (1 Bft)
18/03/2022 15:00 16,5 C 61 % 1024,9 hPa 0,0 mm 3,4 km/h (1 Bft) S 0,00 h 0,152 mm 172 W/m 8,9 C 16,5 C 6,7 km/h (2 Bft)
18/03/2022 16:00 15,4 C 65 % 1025,3 hPa 0,0 mm 0,4 km/h (0 Bft) S 0,00 h 0,127 mm 125 W/m 8,9 C 15,4 C 1,7 km/h (1 Bft)
18/03/2022 17:00 15,3 C 66 % 1025,5 hPa 0,0 mm 0,0 km/h (0 Bft) N 0,00 h 0,076 mm 88 W/m 9,0 C 15,3 C 0,1 km/h (0 Bft)
18/03/2022 18:00 14,5 C 67 % 1025,9 hPa 0,0 mm 0,1 km/h (0 Bft) S 0,17 h 0,051 mm 30 W/m 8,4 C 14,5 C 1,0 km/h (0 Bft)
18/03/2022 19:00 13,2 C 69 % 1026,6 hPa 0,0 mm 0,7 km/h (0 Bft) S 0,00 h 0,025 mm 0 W/m 7,6 C 13,2 C 2,8 km/h (1 Bft)
18/03/2022 20:00 12,6 C 67 % 1027,4 hPa 0,0 mm 1,0 km/h (0 Bft) S 0,00 h 0,025 mm 0 W/m 6,6 C 12,6 C 2,4 km/h (1 Bft)
18/03/2022 21:00 11,9 C 64 % 1027,9 hPa 0,0 mm 0,2 km/h (0 Bft) S 0,00 h 0,025 mm 0 W/m 5,2 C 11,9 C 1,1 km/h (1 Bft)
18/03/2022 22:00 11,2 C 65 % 1028,1 hPa 0,0 mm 0,2 km/h (0 Bft) S 0,00 h 0,025 mm 0 W/m 4,9 C 11,2 C 0,7 km/h (0 Bft)
18/03/2022 23:00 10,5 C 66 % 1028,3 hPa 0,0 mm 0,1 km/h (0 Bft) S 0,00 h 0,025 mm 0 W/m 4,5 C 10,5 C 0,5 km/h (0 Bft)
19/03/2022 00:00 10,3 C 66 % 1028,6 hPa 0,0 mm 0,1 km/h (0 Bft) S 0,00 h 0,025 mm 0 W/m 4,4 C 10,3 C 0,5 km/h (0 Bft)
19/03/2022 01:00 10,3 C 64 % 1028,6 hPa 0,0 mm 0,1 km/h (0 Bft) S 0,00 h 0,025 mm 0 W/m 3,9 C 10,3 C 0,6 km/h (0 Bft)
19/03/2022 02:00 10,2 C 64 % 1028,4 hPa 0,0 mm 0,2 km/h (0 Bft) S 0,00 h 0,025 mm 0 W/m 3,7 C 10,2 C 1,1 km/h (0 Bft)
19/03/2022 03:00 10,0 C 64 % 1028,3 hPa 0,0 mm 0,0 km/h (0 Bft) S 0,00 h 0,025 mm 0 W/m 3,4 C 10,0 C 0,2 km/h (0 Bft)
19/03/2022 04:00 9,7 C 64 % 1028,1 hPa 0,0 mm 0,0 km/h (0 Bft) S 0,00 h 0,025 mm 0 W/m 3,2 C 9,7 C 0,2 km/h (0 Bft)
19/03/2022 05:00 9,7 C 61 % 1028,2 hPa 0,0 mm 0,0 km/h (0 Bft) N 0,00 h 0,025 mm 0 W/m 2,6 C 9,7 C 0,1 km/h (0 Bft)
19/03/2022 06:00 10,0 C 58 % 1028,2 hPa 0,0 mm 0,5 km/h (0 Bft) S 0,00 h 0,025 mm 6 W/m 2,1 C 10,0 C 1,3 km/h (1 Bft)
19/03/2022 07:00 10,5 C 62 % 1028,7 hPa 0,0 mm 0,4 km/h (0 Bft) S-SE 0,00 h 0,000 mm 26 W/m 3,6 C 10,5 C 1,1 km/h (1 Bft)
19/03/2022 08:00 10,5 C 64 % 1028,8 hPa 0,0 mm 0,0 km/h (0 Bft) N 0,00 h 0,025 mm 73 W/m 4,0 C 10,5 C 0,1 km/h (0 Bft)
19/03/2022 09:00 11,2 C 65 % 1028,8 hPa 0,0 mm 0,1 km/h (0 Bft) S-SE 0,00 h 0,051 mm 127 W/m 4,8 C 11,2 C 0,4 km/h (0 Bft)
19/03/2022 10:00 12,8 C 61 % 1028,7 hPa 0,0 mm 0,1 km/h (0 Bft) S-SE 0,03 h 0,076 mm 273 W/m 5,6 C 12,8 C 0,2 km/h (0 Bft)
19/03/2022 11:00 15,6 C 53 % 1028,2 hPa 0,0 mm 1,1 km/h (0 Bft) S-SE 0,83 h 0,152 mm 430 W/m 6,0 C 15,6 C 3,4 km/h (1 Bft)
19/03/2022 12:00 17,9 C 42 % 1027,6 hPa 0,0 mm 1,7 km/h (1 Bft) E 0,65 h 0,229 mm 516 W/m 4,7 C 17,9 C 5,7 km/h (1 Bft)
19/03/2022 13:00 17,6 C 39 % 1027,2 hPa 0,0 mm 0,7 km/h (0 Bft) E 0,50 h 0,305 mm 389 W/m 3,5 C 17,6 C 3,9 km/h (1 Bft)
19/03/2022 14:00 16,8 C 41 % 1026,6 hPa 0,0 mm 0,8 km/h (0 Bft) E 0,03 h 0,229 mm 308 W/m 3,5 C 16,8 C 4,4 km/h (1 Bft)
19/03/2022 15:00 16,4 C 45 % 1026,3 hPa 0,0 mm 1,7 km/h (1 Bft) E 0,77 h 0,178 mm 354 W/m 4,5 C 16,4 C 6,1 km/h (2 Bft)
19/03/2022 16:00 15,9 C 45 % 1026,2 hPa 0,0 mm 0,6 km/h (0 Bft) E 0,28 h 0,203 mm 202 W/m 4,0 C 15,9 C 3,4 km/h (1 Bft)
19/03/2022 17:00 14,2 C 49 % 1026,4 hPa 0,0 mm 0,3 km/h (0 Bft) E-SE 0,00 h 0,127 mm 81 W/m 3,5 C 14,2 C 2,0 km/h (1 Bft)
19/03/2022 18:00 12,9 C 52 % 1026,8 hPa 0,0 mm 0,1 km/h (0 Bft) N 0,02 h 0,051 mm 20 W/m 3,4 C 12,9 C 0,5 km/h (0 Bft)
19/03/2022 19:00 11,9 C 54 % 1027,4 hPa 0,0 mm 0,4 km/h (0 Bft) N-NE 0,00 h 0,025 mm 0 W/m 2,8 C 11,9 C 1,3 km/h (1 Bft)
19/03/2022 20:00 11,6 C 68 % 1027,9 hPa 0,0 mm 0,5 km/h (0 Bft) NE 0,00 h 0,025 mm 0 W/m 5,9 C 11,6 C 2,5 km/h (1 Bft)
19/03/2022 21:00 10,6 C 75 % 1028,3 hPa 0,0 mm 0,1 km/h (0 Bft) N-NE 0,00 h 0,025 mm 0 W/m 6,5 C 10,6 C 0,8 km/h (0 Bft)
19/03/2022 22:00 9,6 C 71 % 1028,6 hPa 0,0 mm 0,1 km/h (0 Bft) N-NE 0,00 h 0,025 mm 0 W/m 4,6 C 9,6 C 0,4 km/h (0 Bft)
19/03/2022 23:00 9,2 C 71 % 1028,6 hPa 0,0 mm 0,0 km/h (0 Bft) N 0,00 h 0,025 mm 0 W/m 4,2 C 9,2 C 0,4 km/h (0 Bft)
20/03/2022 00:00 9,5 C 65 % 1028,7 hPa 0,0 mm 0,3 km/h (0 Bft) N-NE 0,00 h 0,025 mm 0 W/m 3,2 C 9,5 C 2,3 km/h (1 Bft)
20/03/2022 01:00 9,9 C 63 % 1028,8 hPa 0,0 mm 0,6 km/h (0 Bft) N-NE 0,00 h 0,025 mm 0 W/m 3,3 C 9,9 C 2,6 km/h (1 Bft)
20/03/2022 02:00 9,9 C 61 % 1028,7 hPa 0,0 mm 0,0 km/h (0 Bft) N 0,00 h 0,025 mm 0 W/m 2,7 C 9,9 C 0,3 km/h (0 Bft)
20/03/2022 03:00 9,8 C 59 % 1028,5 hPa 0,0 mm 0,0 km/h (0 Bft) N 0,00 h 0,025 mm 0 W/m 2,1 C 9,8 C 0,2 km/h (0 Bft)
20/03/2022 04:00 9,3 C 61 % 1028,4 hPa 0,0 mm 0,1 km/h (0 Bft) N-NE 0,00 h 0,025 mm 0 W/m 2,1 C 9,3 C 0,7 km/h (0 Bft)
20/03/2022 05:00 8,8 C 61 % 1028,8 hPa 0,0 mm 0,1 km/h (0 Bft) N-NE 0,00 h 0,025 mm 0 W/m 1,7 C 8,8 C 0,5 km/h (0 Bft)
20/03/2022 06:00 8,4 C 61 % 1029,3 hPa 0,0 mm 0,1 km/h (0 Bft) NO 0,00 h 0,025 mm 10 W/m 1,4 C 8,4 C 0,4 km/h (0 Bft)
20/03/2022 07:00 8,6 C 61 % 1029,9 hPa 0,0 mm 0,0 km/h (0 Bft) N 0,00 h 0,000 mm 39 W/m 1,5 C 8,6 C 0,0 km/h (0 Bft)
20/03/2022 08:00 9,4 C 64 % 1030,5 hPa 0,0 mm 0,0 km/h (0 Bft) N 0,00 h 0,025 mm 107 W/m 3,0 C 9,4 C 0,0 km/h (0 Bft)
20/03/2022 09:00 11,5 C 54 % 1030,9 hPa 0,0 mm 0,2 km/h (0 Bft) NO 0,00 h 0,051 mm 212 W/m 2,4 C 11,5 C 0,9 km/h (0 Bft)
20/03/2022 10:00 13,6 C 50 % 1031,1 hPa 0,0 mm 0,8 km/h (0 Bft) E 0,03 h 0,102 mm 303 W/m 3,3 C 13,6 C 3,8 km/h (1 Bft)
20/03/2022 11:00 15,1 C 46 % 1031,3 hPa 0,0 mm 1,8 km/h (1 Bft) E 0,60 h 0,178 mm 413 W/m 3,6 C 15,1 C 7,1 km/h (2 Bft)
20/03/2022 12:00 14,9 C 47 % 1031,4 hPa 0,0 mm 2,2 km/h (1 Bft) E 0,35 h 0,229 mm 381 W/m 3,7 C 14,9 C 8,6 km/h (2 Bft)
20/03/2022 13:00 15,0 C 45 % 1031,4 hPa 0,0 mm 1,7 km/h (1 Bft) E 0,52 h 0,229 mm 413 W/m 3,2 C 15,0 C 7,7 km/h (2 Bft)
20/03/2022 14:00 14,1 C 47 % 1031,1 hPa 0,0 mm 2,1 km/h (1 Bft) E 0,00 h 0,229 mm 259 W/m 2,8 C 14,1 C 7,5 km/h (2 Bft)
20/03/2022 15:00 13,5 C 46 % 1031,2 hPa 0,0 mm 1,9 km/h (1 Bft) E 0,00 h 0,152 mm 208 W/m 2,2 C 13,5 C 8,0 km/h (2 Bft)
20/03/2022 16:00 13,3 C 50 % 1031,4 hPa 0,0 mm 1,3 km/h (1 Bft) E 0,00 h 0,127 mm 137 W/m 3,3 C 13,3 C 5,9 km/h (2 Bft)
20/03/2022 17:00 12,8 C 54 % 1031,4 hPa 0,0 mm 0,5 km/h (0 Bft) E 0,00 h 0,076 mm 60 W/m 3,7 C 12,8 C 2,6 km/h (1 Bft)
20/03/2022 18:00 12,0 C 58 % 1031,6 hPa 0,0 mm 0,1 km/h (0 Bft) E 0,00 h 0,051 mm 12 W/m 4,0 C 12,0 C 0,7 km/h (0 Bft)
20/03/2022 19:00 11,0 C 62 % 1031,7 hPa 0,0 mm 0,1 km/h (0 Bft) E 0,00 h 0,000 mm 0 W/m 3,9 C 11,0 C 0,6 km/h (0 Bft)
20/03/2022 20:00 10,2 C 65 % 1032,1 hPa 0,0 mm 0,5 km/h (0 Bft) E 0,00 h 0,000 mm 0 W/m 3,9 C 10,2 C 1,8 km/h (1 Bft)
20/03/2022 21:00 9,0 C 67 % 1032,1 hPa 0,0 mm 0,0 km/h (0 Bft) N 0,00 h 0,025 mm 0 W/m 3,1 C 9,0 C 0,1 km/h (0 Bft)
20/03/2022 22:00 8,8 C 66 % 1032,3 hPa 0,0 mm 0,0 km/h (0 Bft) N-NO 0,00 h 0,025 mm 0 W/m 2,7 C 8,8 C 0,2 km/h (0 Bft)
20/03/2022 23:00 8,3 C 59 % 1032,5 hPa 0,0 mm 0,0 km/h (0 Bft) N 0,00 h 0,025 mm 0 W/m 0,8 C 8,3 C 0,0 km/h (0 Bft)
Min-Date _ 14/03/22 19/03/22 16/03/22 - 14/03/22 - - - - 20/03/22 14/03/22 14/03/22
_ Min-Heure 02:21 13:37 17:45 - 00:00 - - - - 23:55 02:21 00:01
Minimum _ 7,0 C 35 % 1020,3 hPa - 0,0 km/h (0 Bft) - - - - -0,1 C 7,0 C 0,0 km/h (0 Bft)
Max-Date _ 16/03/22 14/03/22 20/03/22 14/03/22 18/03/22 - 14/03/22 19/03/22 19/03/22 16/03/22 16/03/22 20/03/22
_ Max-Heure 12:51 09:31 23:00 01:15 15:17 - 09:38 13:00 12:12 12:27 12:51 12:58
Maximum _ 18,7 C 99 % 1032,5 hPa 0,8 mm 9,7 km/h
S (2 Bft)
- 0,02 h 0,305 mm 722 W/m 12,9 C 18,7 C 27,4 km/h
E (4 Bft)
Moyenne _ 12,1 C 73 % 1026,5 hPa #2,6 mm 0,4 km/h (0 Bft) E #15:15 h #9,737 mm 179 W/m 7,2 C 12,1 C 1,7 km/h (1 Bft)
Roquefort les pins